GAM67T LOWI-LOWI

Flight info

Callsign GAM67T
Flight time 0h 5m
Altitude 1111
Route VFR
Aircraft EC45/L-SDGM3RYZ/S

Departure

Time 2026-05-01 07:23
Airport Innsbruck Airport (LOWI)

Arrival

Time 2026-05-01 07:29
Airport Innsbruck Airport (LOWI)
Time Latitude Longitude Altitude Speed Heading
2026-05-01 07:23 47.38656 11.24915 4579 ft 123 kts 206°
2026-05-01 07:23 47.37109 11.23330 4456 ft 143 kts 218°
2026-05-01 07:24 47.36340 11.22403 4383 ft 145 kts 218°
2026-05-01 07:24 47.35553 11.21495 4359 ft 142 kts 216°
2026-05-01 07:24 47.34737 11.20675 4372 ft 136 kts 212°
2026-05-01 07:24 47.33959 11.20054 4533 ft 123 kts 205°
2026-05-01 07:25 47.33114 11.19827 4531 ft 130 kts 179°
2026-05-01 07:25 47.32176 11.19852 4440 ft 139 kts 176°
2026-05-01 07:25 47.31192 11.19950 4319 ft 144 kts 174°
2026-05-01 07:25 47.30163 11.20172 4023 ft 154 kts 166°
2026-05-01 07:26 47.29154 11.20713 3777 ft 155 kts 153°
2026-05-01 07:26 47.28251 11.21581 3507 ft 154 kts 140°
2026-05-01 07:26 47.27500 11.22628 3224 ft 147 kts 130°
2026-05-01 07:26 47.26899 11.23804 2999 ft 139 kts 124°
2026-05-01 07:27 47.26414 11.24972 2887 ft 130 kts 118°
2026-05-01 07:27 47.26044 11.26166 2812 ft 124 kts 113°
2026-05-01 07:27 47.25747 11.27352 2703 ft 123 kts 105°
2026-05-01 07:27 47.25592 11.28561 2597 ft 122 kts 97°
2026-05-01 07:28 47.25554 11.29802 2482 ft 120 kts 88°
2026-05-01 07:28 47.25647 11.30952 2306 ft 107 kts 82°
2026-05-01 07:28 47.25768 11.31964 2174 ft 94 kts 82°
2026-05-01 07:28 47.25858 11.32862 2047 ft 84 kts 83°
2026-05-01 07:29 47.25940 11.33635 1959 ft 70 kts 83°
2026-05-01 07:29 47.26008 11.34260 1935 ft 52 kts 83°
2026-05-01 07:29 47.26059 11.34745 1934 ft 45 kts 83°
2026-05-01 07:29 47.26101 11.35134 1918 ft 31 kts 84°
2026-05-01 07:30 47.25996 11.35270 1902 ft 19 kts 169°
2026-05-01 07:30 47.25926 11.35326 1905 ft 8 kts 97°
2026-05-01 07:30 47.25920 11.35376 1897 ft 5 kts 94°
2026-05-01 07:30 47.25901 11.35394 1900 ft 1 kts 252°
2026-05-01 07:31 47.25901 11.35390 1896 ft 0 kts 262°